Terminal Aerodrome Forecast
Issued by NWS Pocatello, ID

Home | Current Version | Previous Version | Text Only | Print | Product List | Glossary On
Versions: 1 2 3 4 5 6 7 8 9 10 11 12 13
000
FTUS45 KPIH 051720
TAFBYI
TAF
KBYI 051720Z 0518/0618 27012G22KT P6SM VCTS SCT070 BKN120CB
     FM052200 27014G24KT P6SM SCT120
     FM060300 23008KT P6SM SKC=

USA.gov is the U.S. government's official web portal to all federal, state and local government web resources and services.